Time,TemperatureF,DewpointF,PressureIn,WindDirection,WindDirectionDegrees,WindSpeedMPH,WindSpeedGustMPH,Humidity,HourlyPrecipIn,Conditions,Clouds,dailyrainin,SoftwareType,DateUTC
2013-03-14 00:03:00,44.3,25.9,30.41,East,79,0.0,0.0,48,0.00,,---,0.00,VWS V13.01,2013-03-14 05:03:00,
2013-03-14 00:08:00,44.1,27.1,30.41,ENE,78,0.0,0.0,51,0.00,,---,0.00,VWS V13.01,2013-03-14 05:08:00,
2013-03-14 00:13:00,43.9,27.0,30.41,East,79,0.0,1.0,51,0.00,,---,0.00,VWS V13.01,2013-03-14 05:13:00,
2013-03-14 00:18:00,43.8,26.9,30.41,East,79,0.0,1.0,51,0.00,,---,0.00,VWS V13.01,2013-03-14 05:18:00,
2013-03-14 00:23:00,43.8,27.3,30.41,East,79,0.0,1.0,52,0.00,,---,0.00,VWS V13.01,2013-03-14 05:23:00,
2013-03-14 00:28:00,43.7,26.3,30.40,East,79,0.0,1.0,50,0.00,,---,0.00,VWS V13.01,2013-03-14 05:28:00,
2013-03-14 00:33:00,43.8,26.4,30.41,ENE,78,0.0,3.0,50,0.00,,---,0.00,VWS V13.01,2013-03-14 05:33:00,
2013-03-14 00:39:00,44.0,25.6,30.41,East,84,0.0,3.0,48,0.00,,---,0.00,VWS V13.01,2013-03-14 05:39:00,
2013-03-14 00:44:00,44.2,26.3,30.41,East,90,0.0,4.0,49,0.00,,---,0.00,VWS V13.01,2013-03-14 05:44:00,
2013-03-14 00:49:00,44.2,26.8,30.41,East,90,0.0,4.0,50,0.00,,---,0.00,VWS V13.01,2013-03-14 05:49:00,
2013-03-14 00:54:00,44.0,28.0,30.41,East,90,0.0,4.0,53,0.00,,---,0.00,VWS V13.01,2013-03-14 05:54:00,
2013-03-14 00:59:00,43.7,26.3,30.41,East,90,0.0,4.0,50,0.00,,---,0.00,VWS V13.01,2013-03-14 05:59:00,
2013-03-14 01:04:00,43.8,25.4,30.40,East,90,0.0,4.0,48,0.00,,---,0.00,VWS V13.01,2013-03-14 06:04:00,
2013-03-14 01:09:00,43.8,25.9,30.40,ESE,119,0.0,4.0,49,0.00,,---,0.00,VWS V13.01,2013-03-14 06:09:00,
2013-03-14 01:14:00,43.7,26.3,30.40,ESE,120,0.0,4.0,50,0.00,,---,0.00,VWS V13.01,2013-03-14 06:14:00,
2013-03-14 01:19:00,44.0,25.6,30.40,ESE,120,0.0,4.0,48,0.00,,---,0.00,VWS V13.01,2013-03-14 06:19:00,
2013-03-14 01:24:00,44.0,25.6,30.40,ESE,121,0.0,4.0,48,0.00,,---,0.00,VWS V13.01,2013-03-14 06:24:00,
2013-03-14 01:29:00,43.9,25.0,30.39,ESE,115,0.0,4.0,47,0.00,,---,0.00,VWS V13.01,2013-03-14 06:29:00,
2013-03-14 01:34:00,44.2,24.8,30.39,ESE,117,0.0,4.0,46,0.00,,---,0.00,VWS V13.01,2013-03-14 06:34:00,
2013-03-14 01:39:00,44.2,25.3,30.39,ESE,117,0.0,3.0,47,0.00,,---,0.00,VWS V13.01,2013-03-14 06:39:00,
2013-03-14 01:44:00,44.2,25.3,30.39,ESE,121,0.0,3.0,47,0.00,,---,0.00,VWS V13.01,2013-03-14 06:44:00,
2013-03-14 01:49:00,44.0,24.6,30.39,ESE,109,0.0,3.0,46,0.00,,---,0.00,VWS V13.01,2013-03-14 06:49:00,
2013-03-14 01:54:00,44.0,24.6,30.39,ESE,109,0.0,3.0,46,0.00,,---,0.00,VWS V13.01,2013-03-14 06:54:00,
2013-03-14 01:59:00,44.0,24.6,30.39,SE,129,0.0,4.0,46,0.00,,---,0.00,VWS V13.01,2013-03-14 06:59:00,
2013-03-14 02:04:00,44.0,24.6,30.39,SE,130,0.0,4.0,46,0.00,,---,0.00,VWS V13.01,2013-03-14 07:04:00,
2013-03-14 02:09:00,43.7,24.8,30.38,SE,130,0.0,1.0,47,0.00,,---,0.00,VWS V13.01,2013-03-14 07:09:00,
2013-03-14 02:14:00,43.8,23.9,30.38,SE,129,0.0,3.0,45,0.00,,---,0.00,VWS V13.01,2013-03-14 07:14:00,
2013-03-14 02:19:00,44.0,24.0,30.38,ESE,109,0.0,3.0,45,0.00,,---,0.00,VWS V13.01,2013-03-14 07:19:00,
2013-03-14 02:24:00,44.0,24.6,30.38,ESE,119,0.0,4.0,46,0.00,,---,0.00,VWS V13.01,2013-03-14 07:24:00,
2013-03-14 02:29:00,44.3,24.3,30.38,ESE,103,0.0,6.0,45,0.00,,---,0.00,VWS V13.01,2013-03-14 07:29:00,
2013-03-14 02:34:00,44.4,24.4,30.38,SE,132,1.0,6.0,45,0.00,,---,0.00,VWS V13.01,2013-03-14 07:34:00,
2013-03-14 02:39:00,44.3,24.3,30.38,SE,132,0.0,1.0,45,0.00,,---,0.00,VWS V13.01,2013-03-14 07:39:00,
2013-03-14 02:44:00,44.1,24.7,30.38,SE,133,1.0,5.0,46,0.00,,---,0.00,VWS V13.01,2013-03-14 07:44:00,
2013-03-14 02:50:00,44.1,24.7,30.38,SE,133,0.0,5.0,46,0.00,,---,0.00,VWS V13.01,2013-03-14 07:50:00,
2013-03-14 02:55:00,44.2,24.2,30.38,East,92,2.0,6.0,45,0.00,,---,0.00,VWS V13.01,2013-03-14 07:55:00,
2013-03-14 03:00:00,44.3,24.3,30.38,ESE,111,0.0,6.0,45,0.00,,---,0.00,VWS V13.01,2013-03-14 08:00:00,
2013-03-14 03:05:00,44.1,24.1,30.37,ESE,108,3.0,6.0,45,0.00,,---,0.00,VWS V13.01,2013-03-14 08:05:00,
2013-03-14 03:10:00,44.1,24.1,30.37,SE,127,0.0,3.0,45,0.00,,---,0.00,VWS V13.01,2013-03-14 08:10:00,
2013-03-14 03:15:00,43.8,24.4,30.36,ESE,123,0.0,7.0,46,0.00,,---,0.00,VWS V13.01,2013-03-14 08:15:00,
2013-03-14 03:20:00,43.7,24.3,30.36,SE,134,6.0,7.0,46,0.00,,---,0.00,VWS V13.01,2013-03-14 08:20:00,
2013-03-14 03:25:00,43.7,24.3,30.36,ESE,102,1.0,7.0,46,0.00,,---,0.00,VWS V13.01,2013-03-14 08:25:00,
2013-03-14 03:30:00,43.6,24.2,30.36,ESE,105,4.0,7.0,46,0.00,,---,0.00,VWS V13.01,2013-03-14 08:30:00,
2013-03-14 03:35:00,43.8,23.9,30.36,ESE,107,4.0,7.0,45,0.00,,---,0.00,VWS V13.01,2013-03-14 08:35:00,
2013-03-14 03:40:00,43.8,24.4,30.36,ESE,112,0.0,3.0,46,0.00,,---,0.00,VWS V13.01,2013-03-14 08:40:00,
2013-03-14 03:45:00,43.6,24.2,30.36,ESE,112,0.0,4.0,46,0.00,,---,0.00,VWS V13.01,2013-03-14 08:45:00,
2013-03-14 03:50:00,43.4,24.0,30.36,ESE,119,0.0,4.0,46,0.00,,---,0.00,VWS V13.01,2013-03-14 08:50:00,
2013-03-14 03:55:00,43.3,24.4,30.36,ESE,111,0.0,4.0,47,0.00,,---,0.00,VWS V13.01,2013-03-14 08:55:00,
2013-03-14 04:01:00,43.1,24.8,30.36,East,96,0.0,4.0,48,0.00,,---,0.00,VWS V13.01,2013-03-14 09:01:00,
2013-03-14 04:06:00,42.9,24.6,30.36,ESE,118,0.0,0.0,48,0.00,,---,0.00,VWS V13.01,2013-03-14 09:06:00,
2013-03-14 04:11:00,42.8,24.5,30.36,ESE,115,0.0,5.0,48,0.00,,---,0.00,VWS V13.01,2013-03-14 09:11:00,
2013-03-14 04:16:00,42.7,24.4,30.36,ESE,116,0.0,5.0,48,0.00,,---,0.00,VWS V13.01,2013-03-14 09:16:00,
2013-03-14 04:21:00,42.6,24.3,30.36,ESE,117,0.0,5.0,48,0.00,,---,0.00,VWS V13.01,2013-03-14 09:21:00,
2013-03-14 04:26:00,42.4,24.6,30.36,East,92,0.0,5.0,49,0.00,,---,0.00,VWS V13.01,2013-03-14 09:26:00,
2013-03-14 04:31:00,42.3,24.5,30.36,East,94,0.0,5.0,49,0.00,,---,0.00,VWS V13.01,2013-03-14 09:31:00,
2013-03-14 04:36:00,42.2,24.9,30.36,East,92,0.0,0.0,50,0.00,,---,0.00,VWS V13.01,2013-03-14 09:36:00,
2013-03-14 04:41:00,42.0,25.2,30.36,East,92,0.0,3.0,51,0.00,,---,0.00,VWS V13.01,2013-03-14 09:41:00,
2013-03-14 04:46:00,41.8,25.0,30.36,East,92,0.0,4.0,51,0.00,,---,0.00,VWS V13.01,2013-03-14 09:46:00,
2013-03-14 04:51:00,41.6,24.8,30.36,East,93,0.0,4.0,51,0.00,,---,0.00,VWS V13.01,2013-03-14 09:51:00,
2013-03-14 04:56:00,41.5,25.7,30.36,East,93,0.0,4.0,53,0.00,,---,0.00,VWS V13.01,2013-03-14 09:56:00,
2013-03-14 05:01:00,41.3,25.5,30.36,East,92,0.0,4.0,53,0.00,,---,0.00,VWS V13.01,2013-03-14 10:01:00,
2013-03-14 05:06:00,41.1,25.7,30.35,East,93,0.0,0.0,54,0.00,,---,0.00,VWS V13.01,2013-03-14 10:06:00,
2013-03-14 05:12:00,40.9,25.1,30.35,East,93,0.0,0.0,53,0.00,,---,0.00,VWS V13.01,2013-03-14 10:12:00,
2013-03-14 05:17:00,40.7,24.9,30.36,East,93,0.0,0.0,53,0.00,,---,0.00,VWS V13.01,2013-03-14 10:17:00,
2013-03-14 05:22:00,40.6,25.3,30.35,East,93,0.0,2.0,54,0.00,,---,0.00,VWS V13.01,2013-03-14 10:22:00,
2013-03-14 05:27:00,40.4,25.5,30.35,East,93,0.0,2.0,55,0.00,,---,0.00,VWS V13.01,2013-03-14 10:27:00,
2013-03-14 05:32:00,40.3,25.4,30.35,East,92,0.0,2.0,55,0.00,,---,0.00,VWS V13.01,2013-03-14 10:32:00,
2013-03-14 05:37:00,40.1,25.2,30.36,East,93,0.0,1.0,55,0.00,,---,0.00,VWS V13.01,2013-03-14 10:37:00,
2013-03-14 05:42:00,40.0,25.6,30.36,East,92,0.0,1.0,56,0.00,,---,0.00,VWS V13.01,2013-03-14 10:42:00,
2013-03-14 05:47:00,39.8,25.4,30.36,East,93,0.0,1.0,56,0.00,,---,0.00,VWS V13.01,2013-03-14 10:47:00,
2013-03-14 05:52:00,39.7,25.3,30.36,East,93,0.0,5.0,56,0.00,,---,0.00,VWS V13.01,2013-03-14 10:52:00,
2013-03-14 05:57:00,39.7,25.3,30.36,East,93,0.0,5.0,56,0.00,,---,0.00,VWS V13.01,2013-03-14 10:57:00,
2013-03-14 06:02:00,39.6,25.2,30.37,East,93,0.0,5.0,56,0.00,,---,0.00,VWS V13.01,2013-03-14 11:02:00,
2013-03-14 06:07:00,39.6,25.6,30.37,East,93,0.0,0.0,57,0.00,,---,0.00,VWS V13.01,2013-03-14 11:07:00,
2013-03-14 06:12:00,39.5,25.5,30.37,East,92,0.0,1.0,57,0.00,,---,0.00,VWS V13.01,2013-03-14 11:12:00,
2013-03-14 06:18:00,39.5,26.0,30.37,East,92,0.0,1.0,58,0.00,,---,0.00,VWS V13.01,2013-03-14 11:18:00,
2013-03-14 06:22:00,39.4,25.9,30.37,East,93,0.0,4.0,58,0.00,,---,0.00,VWS V13.01,2013-03-14 11:22:00,
2013-03-14 06:28:00,39.5,26.0,30.37,East,92,0.0,4.0,58,0.00,,---,0.00,VWS V13.01,2013-03-14 11:28:00,
2013-03-14 06:33:00,39.6,26.1,30.37,SE,142,0.0,5.0,58,0.00,,---,0.00,VWS V13.01,2013-03-14 11:33:00,
2013-03-14 06:38:00,39.7,26.1,30.37,East,92,0.0,6.0,58,0.00,,---,0.00,VWS V13.01,2013-03-14 11:38:00,
2013-03-14 06:43:00,39.9,26.3,30.38,ENE,78,1.0,6.0,58,0.00,,---,0.00,VWS V13.01,2013-03-14 11:43:00,
2013-03-14 06:48:00,39.9,26.8,30.38,ENE,69,1.0,6.0,59,0.00,,---,0.00,VWS V13.01,2013-03-14 11:48:00,
2013-03-14 06:53:00,39.8,27.1,30.38,ENE,76,0.0,6.0,60,0.00,,---,0.00,VWS V13.01,2013-03-14 11:53:00,
2013-03-14 06:58:00,39.7,27.0,30.38,East,81,0.0,6.0,60,0.00,,---,0.00,VWS V13.01,2013-03-14 11:58:00,
2013-03-14 07:03:00,39.6,26.9,30.38,East,88,3.0,6.0,60,0.00,,---,0.00,VWS V13.01,2013-03-14 12:03:00,
2013-03-14 07:08:00,39.4,27.1,30.38,East,90,0.0,3.0,61,0.00,,---,0.00,VWS V13.01,2013-03-14 12:08:00,
2013-03-14 07:13:00,39.3,27.0,30.38,ESE,117,1.0,3.0,61,0.00,,---,0.00,VWS V13.01,2013-03-14 12:13:00,
2013-03-14 07:18:00,39.1,27.2,30.38,ESE,121,0.0,3.0,62,0.00,,---,0.00,VWS V13.01,2013-03-14 12:18:00,
2013-03-14 07:23:00,39.0,27.1,30.37,SE,125,0.0,3.0,62,0.00,,---,0.00,VWS V13.01,2013-03-14 12:23:00,
2013-03-14 07:28:00,38.9,27.0,30.38,SE,145,0.0,4.0,62,0.00,,---,0.00,VWS V13.01,2013-03-14 12:28:00,
2013-03-14 07:33:00,38.8,26.9,30.38,SE,145,0.0,4.0,62,0.00,,---,0.00,VWS V13.01,2013-03-14 12:33:00,
2013-03-14 07:38:00,38.7,26.8,30.38,SE,145,0.0,1.0,62,0.00,,---,0.00,VWS V13.01,2013-03-14 12:38:00,
2013-03-14 07:43:00,38.7,27.2,30.38,SE,144,0.0,1.0,63,0.00,,---,0.00,VWS V13.01,2013-03-14 12:43:00,
2013-03-14 07:48:00,38.7,27.2,30.37,SSE,167,0.0,3.0,63,0.00,,---,0.00,VWS V13.01,2013-03-14 12:48:00,
2013-03-14 07:53:00,38.7,27.6,30.37,SE,131,0.0,6.0,64,0.00,,---,0.00,VWS V13.01,2013-03-14 12:53:00,
2013-03-14 07:58:00,38.8,27.7,30.37,SSE,149,0.0,6.0,64,0.00,,---,0.00,VWS V13.01,2013-03-14 12:58:00,
2013-03-14 08:03:00,38.9,27.8,30.37,SE,144,0.0,6.0,64,0.00,,---,0.00,VWS V13.01,2013-03-14 13:03:00,
2013-03-14 08:09:00,38.9,27.8,30.38,SE,136,0.0,5.0,64,0.00,,---,0.00,VWS V13.01,2013-03-14 13:09:00,
2013-03-14 08:14:00,39.0,27.9,30.39,SE,142,2.0,5.0,64,0.00,,---,0.00,VWS V13.01,2013-03-14 13:14:00,
2013-03-14 08:19:00,39.2,28.1,30.38,SE,142,0.0,5.0,64,0.00,,---,0.00,VWS V13.01,2013-03-14 13:19:00,
2013-03-14 08:24:00,39.3,28.5,30.38,SSE,148,0.0,5.0,65,0.00,,---,0.00,VWS V13.01,2013-03-14 13:24:00,
2013-03-14 08:29:00,39.5,28.7,30.39,SE,137,0.0,5.0,65,0.00,,---,0.00,VWS V13.01,2013-03-14 13:29:00,
2013-03-14 08:34:00,39.6,28.8,30.39,SE,142,1.0,5.0,65,0.00,,---,0.00,VWS V13.01,2013-03-14 13:34:00,
2013-03-14 08:39:00,39.8,29.0,30.39,SE,132,0.0,1.0,65,0.00,,---,0.00,VWS V13.01,2013-03-14 13:39:00,
2013-03-14 08:44:00,40.0,29.2,30.38,SE,128,4.0,7.0,65,0.00,,---,0.00,VWS V13.01,2013-03-14 13:44:00,
2013-03-14 08:49:00,40.3,29.1,30.38,SE,145,0.0,7.0,64,0.00,,---,0.00,VWS V13.01,2013-03-14 13:49:00,
2013-03-14 08:54:00,40.5,29.7,30.38,SSE,153,0.0,7.0,65,0.00,,---,0.00,VWS V13.01,2013-03-14 13:54:00,
2013-03-14 08:59:00,40.7,29.9,30.38,SSE,154,2.0,7.0,65,0.00,,---,0.00,VWS V13.01,2013-03-14 13:59:00,
2013-03-14 09:04:00,40.9,30.1,30.38,SE,145,0.0,7.0,65,0.00,,---,0.00,VWS V13.01,2013-03-14 14:04:00,
2013-03-14 09:09:00,41.1,30.2,30.38,ESE,115,3.0,7.0,65,0.00,,---,0.00,VWS V13.01,2013-03-14 14:09:00,
2013-03-14 09:14:00,41.3,30.4,30.39,SSE,160,0.0,7.0,65,0.00,,---,0.00,VWS V13.01,2013-03-14 14:14:00,
2013-03-14 09:19:00,41.6,30.7,30.39,ESE,113,0.0,7.0,65,0.00,,---,0.00,VWS V13.01,2013-03-14 14:19:00,
2013-03-14 09:24:00,41.9,31.0,30.39,SSE,151,0.0,7.0,65,0.00,,---,0.00,VWS V13.01,2013-03-14 14:24:00,
2013-03-14 09:29:00,42.3,31.4,30.39,SSE,156,0.0,7.0,65,0.00,,---,0.00,VWS V13.01,2013-03-14 14:29:00,
2013-03-14 09:34:00,42.6,31.7,30.38,SSE,157,0.0,7.0,65,0.00,,---,0.00,VWS V13.01,2013-03-14 14:34:00,
2013-03-14 09:39:00,42.9,31.6,30.38,SE,128,0.0,4.0,64,0.00,,---,0.00,VWS V13.01,2013-03-14 14:39:00,
2013-03-14 09:44:00,43.4,30.9,30.38,South,179,0.0,4.0,61,0.00,,---,0.00,VWS V13.01,2013-03-14 14:44:00,
2013-03-14 09:49:00,44.0,31.0,30.38,South,175,1.0,5.0,60,0.00,,---,0.00,VWS V13.01,2013-03-14 14:49:00,
2013-03-14 09:54:00,44.6,31.6,30.38,South,175,1.0,5.0,60,0.00,,---,0.00,VWS V13.01,2013-03-14 14:54:00,
2013-03-14 09:59:00,45.4,31.1,30.38,SSW,196,4.0,10.0,57,0.00,,---,0.00,VWS V13.01,2013-03-14 14:59:00,
2013-03-14 10:05:00,46.3,31.0,30.37,South,176,3.0,11.0,55,0.00,,---,0.00,VWS V13.01,2013-03-14 15:05:00,
2013-03-14 10:10:00,46.9,30.7,30.37,SW,229,4.0,10.0,53,0.00,,---,0.00,VWS V13.01,2013-03-14 15:10:00,
2013-03-14 10:15:00,47.3,31.5,30.37,SSW,193,0.0,10.0,54,0.00,,---,0.00,VWS V13.01,2013-03-14 15:15:00,
2013-03-14 10:20:00,47.6,31.8,30.37,South,180,0.0,10.0,54,0.00,,---,0.00,VWS V13.01,2013-03-14 15:20:00,
2013-03-14 10:25:00,47.9,32.1,30.36,SSE,153,2.0,12.0,54,0.00,,---,0.00,VWS V13.01,2013-03-14 15:25:00,
2013-03-14 10:30:00,48.3,32.4,30.36,SSE,148,2.0,12.0,54,0.00,,---,0.00,VWS V13.01,2013-03-14 15:30:00,
2013-03-14 10:35:00,48.6,33.6,30.36,SSE,159,5.0,12.0,56,0.00,,---,0.00,VWS V13.01,2013-03-14 15:35:00,
2013-03-14 10:40:00,49.0,33.5,30.36,SSE,164,0.0,3.0,55,0.00,,---,0.00,VWS V13.01,2013-03-14 15:40:00,
2013-03-14 10:45:00,49.2,34.2,30.36,SE,146,0.0,5.0,56,0.00,,---,0.00,VWS V13.01,2013-03-14 15:45:00,
2013-03-14 10:50:00,49.5,34.9,30.36,SE,145,0.0,6.0,57,0.00,,---,0.00,VWS V13.01,2013-03-14 15:50:00,
2013-03-14 10:55:00,49.9,34.4,30.36,South,173,0.0,6.0,55,0.00,,---,0.00,VWS V13.01,2013-03-14 15:55:00,
2013-03-14 11:00:00,50.3,34.3,30.36,SW,219,2.0,6.0,54,0.00,,---,0.00,VWS V13.01,2013-03-14 16:00:00,
2013-03-14 11:05:00,50.8,34.8,30.35,SSE,157,0.0,6.0,54,0.00,,---,0.00,VWS V13.01,2013-03-14 16:05:00,
2013-03-14 11:10:00,51.4,34.9,30.35,SSW,199,0.0,7.0,53,0.00,,---,0.00,VWS V13.01,2013-03-14 16:10:00,
2013-03-14 11:15:00,52.1,34.5,30.35,WSW,240,0.0,7.0,51,0.00,,---,0.00,VWS V13.01,2013-03-14 16:15:00,
2013-03-14 11:20:00,52.7,34.6,30.34,South,176,2.0,9.0,50,0.00,,---,0.00,VWS V13.01,2013-03-14 16:20:00,
2013-03-14 11:25:00,53.5,34.3,30.34,South,187,0.0,17.0,48,0.00,,---,0.00,VWS V13.01,2013-03-14 16:25:00,
2013-03-14 11:30:00,54.1,34.9,30.34,SSW,197,2.0,17.0,48,0.00,,---,0.00,VWS V13.01,2013-03-14 16:30:00,
2013-03-14 11:35:00,54.8,34.4,30.34,SW,214,3.0,17.0,46,0.00,,---,0.00,VWS V13.01,2013-03-14 16:35:00,
2013-03-14 11:41:00,55.4,36.1,30.33,SW,223,2.0,7.0,48,0.00,,---,0.00,VWS V13.01,2013-03-14 16:41:00,
2013-03-14 11:46:00,55.9,34.3,30.33,South,186,1.0,11.0,44,0.00,,---,0.00,VWS V13.01,2013-03-14 16:46:00,
2013-03-14 11:51:00,56.9,34.7,30.33,SW,223,8.0,11.0,43,0.00,,---,0.00,VWS V13.01,2013-03-14 16:51:00,
2013-03-14 11:56:00,57.5,34.6,30.33,SW,230,2.0,12.0,42,0.00,,---,0.00,VWS V13.01,2013-03-14 16:56:00,
2013-03-14 12:01:00,58.2,35.2,30.33,SW,232,0.0,13.0,42,0.00,,---,0.00,VWS V13.01,2013-03-14 17:01:00,
2013-03-14 12:07:00,59.3,35.6,30.33,South,180,4.0,9.0,41,0.00,,---,0.00,VWS V13.01,2013-03-14 17:07:00,
2013-03-14 12:12:00,59.9,34.9,30.32,South,176,3.0,9.0,39,0.00,,---,0.00,VWS V13.01,2013-03-14 17:12:00,
2013-03-14 12:17:00,60.2,35.2,30.32,SSE,165,6.0,14.0,39,0.00,,---,0.00,VWS V13.01,2013-03-14 17:17:00,
2013-03-14 12:22:00,60.2,35.8,30.31,SW,236,9.0,14.0,40,0.00,,---,0.00,VWS V13.01,2013-03-14 17:22:00,
2013-03-14 12:28:00,61.0,37.2,30.31,South,176,10.0,14.0,41,0.00,,---,0.00,VWS V13.01,2013-03-14 17:28:00,
2013-03-14 12:33:00,60.5,36.1,30.31,South,173,1.0,14.0,40,0.00,,---,0.00,VWS V13.01,2013-03-14 17:33:00,
2013-03-14 12:38:00,60.4,36.0,30.31,SW,221,1.0,17.0,40,0.00,,---,0.00,VWS V13.01,2013-03-14 17:38:00,
2013-03-14 12:43:00,60.9,37.1,30.30,NW,307,3.0,17.0,41,0.00,,---,0.00,VWS V13.01,2013-03-14 17:43:00,
2013-03-14 12:48:00,61.2,36.1,30.30,SW,217,0.0,17.0,39,0.00,,---,0.00,VWS V13.01,2013-03-14 17:48:00,
2013-03-14 12:53:00,61.2,36.1,30.30,SW,217,3.0,17.0,39,0.00,,---,0.00,VWS V13.01,2013-03-14 17:53:00,
2013-03-14 12:58:00,62.0,38.0,30.29,South,188,2.0,17.0,41,0.00,,---,0.00,VWS V13.01,2013-03-14 17:58:00,
2013-03-14 13:03:00,62.8,36.8,30.29,South,187,2.0,17.0,38,0.00,,---,0.00,VWS V13.01,2013-03-14 18:03:00,
2013-03-14 13:08:00,63.0,38.3,30.28,WSW,244,0.0,4.0,40,0.00,,---,0.00,VWS V13.01,2013-03-14 18:08:00,
2013-03-14 13:13:00,62.6,37.3,30.28,SW,217,3.0,7.0,39,0.00,,---,0.00,VWS V13.01,2013-03-14 18:13:00,
2013-03-14 13:19:00,62.3,38.3,30.27,SW,225,3.0,10.0,41,0.00,,---,0.00,VWS V13.01,2013-03-14 18:19:00,
2013-03-14 13:24:00,62.6,38.0,30.27,SSE,157,3.0,10.0,40,0.00,,---,0.00,VWS V13.01,2013-03-14 18:24:00,
2013-03-14 13:29:00,62.9,37.6,30.26,West,260,1.0,10.0,39,0.00,,---,0.00,VWS V13.01,2013-03-14 18:29:00,
2013-03-14 13:34:00,63.5,38.8,30.26,SW,227,0.0,10.0,40,0.00,,---,0.00,VWS V13.01,2013-03-14 18:34:00,
2013-03-14 13:39:00,64.0,37.9,30.26,SW,235,0.0,10.0,38,0.00,,---,0.00,VWS V13.01,2013-03-14 18:39:00,
2013-03-14 13:44:00,64.3,37.5,30.25,South,175,2.0,11.0,37,0.00,,---,0.00,VWS V13.01,2013-03-14 18:44:00,
2013-03-14 13:49:00,64.7,37.8,30.25,West,268,0.0,11.0,37,0.00,,---,0.00,VWS V13.01,2013-03-14 18:49:00,
2013-03-14 13:54:00,65.1,38.2,30.25,SW,230,0.0,11.0,37,0.00,,---,0.00,VWS V13.01,2013-03-14 18:54:00,
2013-03-14 13:59:00,65.6,39.3,30.24,West,281,0.0,11.0,38,0.00,,---,0.00,VWS V13.01,2013-03-14 18:59:00,
2013-03-14 14:04:00,65.5,38.6,30.24,SW,219,0.0,11.0,37,0.00,,---,0.00,VWS V13.01,2013-03-14 19:04:00,
2013-03-14 14:09:00,65.9,40.3,30.24,SW,223,3.0,9.0,39,0.00,,---,0.00,VWS V13.01,2013-03-14 19:09:00,
2013-03-14 14:15:00,66.2,39.9,30.23,SW,225,4.0,9.0,38,0.00,,---,0.00,VWS V13.01,2013-03-14 19:15:00,
2013-03-14 14:20:00,66.2,40.5,30.23,SW,233,0.0,9.0,39,0.00,,---,0.00,VWS V13.01,2013-03-14 19:20:00,
2013-03-14 14:25:00,66.3,41.3,30.23,SSW,209,0.0,9.0,40,0.00,,---,0.00,VWS V13.01,2013-03-14 19:25:00,
2013-03-14 14:30:00,66.9,39.8,30.22,SSW,201,6.0,9.0,37,0.00,,---,0.00,VWS V13.01,2013-03-14 19:30:00,
2013-03-14 14:35:00,66.8,39.7,30.22,South,179,10.0,11.0,37,0.00,,---,0.00,VWS V13.01,2013-03-14 19:35:00,
2013-03-14 14:40:00,67.2,39.4,30.21,South,178,5.0,13.0,36,0.00,,---,0.00,VWS V13.01,2013-03-14 19:40:00,
2013-03-14 14:45:00,67.2,40.8,30.20,SSW,213,0.0,13.0,38,0.00,,---,0.00,VWS V13.01,2013-03-14 19:45:00,
2013-03-14 14:50:00,67.6,40.4,30.20,South,191,1.0,13.0,37,0.00,,---,0.00,VWS V13.01,2013-03-14 19:50:00,
2013-03-14 14:55:00,68.3,41.7,30.19,SW,214,0.0,13.0,38,0.00,,---,0.00,VWS V13.01,2013-03-14 19:55:00,
2013-03-14 15:00:00,69.0,41.7,30.19,South,173,0.0,13.0,37,0.00,,---,0.00,VWS V13.01,2013-03-14 20:00:00,
2013-03-14 15:05:00,69.7,40.8,30.18,SE,146,0.0,13.0,35,0.00,,---,0.00,VWS V13.01,2013-03-14 20:05:00,
2013-03-14 15:10:00,70.4,41.5,30.18,SW,216,0.0,7.0,35,0.00,,---,0.00,VWS V13.01,2013-03-14 20:10:00,
2013-03-14 15:15:00,70.5,41.6,30.18,SW,217,3.0,13.0,35,0.00,,---,0.00,VWS V13.01,2013-03-14 20:15:00,
2013-03-14 15:20:00,70.8,43.3,30.18,West,273,1.0,13.0,37,0.00,,---,0.00,VWS V13.01,2013-03-14 20:20:00,
2013-03-14 15:25:00,70.0,41.8,30.18,WNW,299,2.0,13.0,36,0.00,,---,0.00,VWS V13.01,2013-03-14 20:25:00,
2013-03-14 15:30:00,69.3,42.6,30.18,West,269,0.0,13.0,38,0.00,,---,0.00,VWS V13.01,2013-03-14 20:30:00,
2013-03-14 15:35:00,69.0,43.7,30.17,West,269,0.0,13.0,40,0.00,,---,0.00,VWS V13.01,2013-03-14 20:35:00,
2013-03-14 15:41:00,68.9,43.6,30.17,West,270,0.0,1.0,40,0.00,,---,0.00,VWS V13.01,2013-03-14 20:41:00,
2013-03-14 15:46:00,68.7,43.4,30.17,West,273,2.0,2.0,40,0.00,,---,0.00,VWS V13.01,2013-03-14 20:46:00,
2013-03-14 15:51:00,67.9,42.1,30.17,West,272,0.0,2.0,39,0.00,,---,0.00,VWS V13.01,2013-03-14 20:51:00,
2013-03-14 15:56:00,67.4,42.3,30.18,West,273,0.0,2.0,40,0.00,,---,0.00,VWS V13.01,2013-03-14 20:56:00,
2013-03-14 16:01:00,67.0,40.6,30.18,West,273,0.0,2.0,38,0.00,,---,0.00,VWS V13.01,2013-03-14 21:01:00,
2013-03-14 16:06:00,66.4,43.2,30.18,West,273,0.0,0.0,43,0.00,,---,0.00,VWS V13.01,2013-03-14 21:06:00,
2013-03-14 16:12:00,66.0,41.7,30.18,West,273,0.0,0.0,41,0.00,,---,0.00,VWS V13.01,2013-03-14 21:12:00,
2013-03-14 16:17:00,65.9,41.6,30.18,West,272,0.0,0.0,41,0.00,,---,0.00,VWS V13.01,2013-03-14 21:17:00,
2013-03-14 16:22:00,65.6,41.3,30.18,West,273,0.0,0.0,41,0.00,,---,0.00,VWS V13.01,2013-03-14 21:22:00,
2013-03-14 16:27:00,65.2,41.5,30.18,West,272,0.0,0.0,42,0.00,,---,0.00,VWS V13.01,2013-03-14 21:27:00,
2013-03-14 16:33:00,65.0,42.0,30.18,West,272,0.0,0.0,43,0.00,,---,0.00,VWS V13.01,2013-03-14 21:33:00,
2013-03-14 16:38:00,65.2,42.8,30.18,West,273,0.0,0.0,44,0.00,,---,0.00,VWS V13.01,2013-03-14 21:38:00,
2013-03-14 16:43:00,64.8,43.6,30.18,West,273,0.0,0.0,46,0.00,,---,0.00,VWS V13.01,2013-03-14 21:43:00,
2013-03-14 16:48:00,64.8,44.1,30.18,West,273,0.0,0.0,47,0.00,,---,0.00,VWS V13.01,2013-03-14 21:48:00,
2013-03-14 16:53:00,65.1,43.3,30.18,West,273,0.0,0.0,45,0.00,,---,0.00,VWS V13.01,2013-03-14 21:53:00,
2013-03-14 16:58:00,65.7,42.6,30.18,West,273,0.0,1.0,43,0.00,,---,0.00,VWS V13.01,2013-03-14 21:58:00,
2013-03-14 17:03:00,66.1,43.0,30.18,West,273,0.0,1.0,43,0.00,,---,0.00,VWS V13.01,2013-03-14 22:03:00,
2013-03-14 17:08:00,66.3,43.8,30.18,West,273,0.0,0.0,44,0.00,,---,0.00,VWS V13.01,2013-03-14 22:08:00,
2013-03-14 17:13:00,66.4,43.2,30.18,NW,319,5.0,5.0,43,0.00,,---,0.00,VWS V13.01,2013-03-14 22:13:00,
2013-03-14 17:18:00,65.9,44.0,30.17,NW,319,0.0,5.0,45,0.00,,---,0.00,VWS V13.01,2013-03-14 22:18:00,
2013-03-14 17:23:00,65.5,44.2,30.17,NW,319,0.0,5.0,46,0.00,,---,0.00,VWS V13.01,2013-03-14 22:23:00,
2013-03-14 17:28:00,65.3,44.0,30.17,NW,319,0.0,5.0,46,0.00,,---,0.00,VWS V13.01,2013-03-14 22:28:00,
2013-03-14 17:33:00,65.2,43.9,30.17,NW,318,0.0,5.0,46,0.00,,---,0.00,VWS V13.01,2013-03-14 22:33:00,
2013-03-14 17:38:00,65.0,43.2,30.17,NW,319,0.0,1.0,45,0.00,,---,0.00,VWS V13.01,2013-03-14 22:38:00,
2013-03-14 17:43:00,64.7,44.6,30.17,NW,319,0.0,1.0,48,0.00,,---,0.00,VWS V13.01,2013-03-14 22:43:00,
2013-03-14 17:48:00,64.3,45.3,30.16,NW,318,0.0,1.0,50,0.00,,---,0.00,VWS V13.01,2013-03-14 22:48:00,
2013-03-14 17:53:00,64.1,44.0,30.16,NW,319,0.0,1.0,48,0.00,,---,0.00,VWS V13.01,2013-03-14 22:53:00,
2013-03-14 17:59:00,63.9,44.4,30.17,NW,319,0.0,1.0,49,0.00,,---,0.00,VWS V13.01,2013-03-14 22:59:00,
2013-03-14 18:04:00,63.8,44.3,30.17,NW,319,0.0,1.0,49,0.00,,---,0.00,VWS V13.01,2013-03-14 23:04:00,
2013-03-14 18:09:00,63.8,43.8,30.17,NW,319,0.0,0.0,48,0.00,,---,0.00,VWS V13.01,2013-03-14 23:09:00,
2013-03-14 18:14:00,63.7,45.2,30.17,NW,319,0.0,0.0,51,0.00,,---,0.00,VWS V13.01,2013-03-14 23:14:00,
2013-03-14 18:19:00,63.6,45.2,30.17,SSW,209,0.0,6.0,51,0.00,,---,0.00,VWS V13.01,2013-03-14 23:19:00,
2013-03-14 18:24:00,64.0,43.9,30.17,SSW,209,0.0,6.0,48,0.00,,---,0.00,VWS V13.01,2013-03-14 23:24:00,
2013-03-14 18:29:00,64.2,44.1,30.17,SSW,209,0.0,6.0,48,0.00,,---,0.00,VWS V13.01,2013-03-14 23:29:00,
2013-03-14 18:34:00,64.5,43.8,30.17,SW,220,2.0,6.0,47,0.00,,---,0.00,VWS V13.01,2013-03-14 23:34:00,
2013-03-14 18:39:00,64.9,43.7,30.17,SW,229,5.0,6.0,46,0.00,,---,0.00,VWS V13.01,2013-03-14 23:39:00,
2013-03-14 18:44:00,65.1,44.4,30.16,SW,225,0.0,6.0,47,0.00,,---,0.00,VWS V13.01,2013-03-14 23:44:00,
2013-03-14 18:49:00,65.0,44.8,30.17,SW,219,2.0,6.0,48,0.00,,---,0.00,VWS V13.01,2013-03-14 23:49:00,
2013-03-14 18:55:00,64.8,44.7,30.17,SW,225,0.0,6.0,48,0.00,,---,0.00,VWS V13.01,2013-03-14 23:55:00,
2013-03-14 19:00:00,64.7,44.6,30.17,SW,218,3.0,9.0,48,0.00,,---,0.00,VWS V13.01,2013-03-15 00:00:00,
2013-03-14 19:05:00,64.7,44.0,30.16,SW,225,4.0,9.0,47,0.00,,---,0.00,VWS V13.01,2013-03-15 00:05:00,
2013-03-14 19:10:00,64.5,44.4,30.16,SSW,213,3.0,8.0,48,0.00,,---,0.00,VWS V13.01,2013-03-15 00:10:00,
2013-03-14 19:15:00,64.2,44.1,30.16,SW,218,0.0,8.0,48,0.00,,---,0.00,VWS V13.01,2013-03-15 00:15:00,
2013-03-14 19:20:00,64.1,44.0,30.16,SW,215,0.0,8.0,48,0.00,,---,0.00,VWS V13.01,2013-03-15 00:20:00,
2013-03-14 19:25:00,63.9,43.8,30.16,SW,222,0.0,8.0,48,0.00,,---,0.00,VWS V13.01,2013-03-15 00:25:00,
2013-03-14 19:30:00,63.7,43.7,30.16,SW,219,3.0,8.0,48,0.00,,---,0.00,VWS V13.01,2013-03-15 00:30:00,
2013-03-14 19:35:00,63.8,43.8,30.16,West,260,0.0,10.0,48,0.00,,---,0.00,VWS V13.01,2013-03-15 00:35:00,
2013-03-14 19:40:00,63.9,43.3,30.15,SW,223,4.0,12.0,47,0.00,,---,0.00,VWS V13.01,2013-03-15 00:40:00,
2013-03-14 19:45:00,63.8,43.8,30.15,SW,234,0.0,12.0,48,0.00,,---,0.00,VWS V13.01,2013-03-15 00:45:00,
2013-03-14 19:50:00,63.7,43.7,30.15,SW,214,6.0,12.0,48,0.00,,---,0.00,VWS V13.01,2013-03-15 00:50:00,
2013-03-14 19:55:00,63.8,43.8,30.16,WSW,250,0.0,14.0,48,0.00,,---,0.00,VWS V13.01,2013-03-15 00:55:00,
2013-03-14 20:00:00,63.8,43.2,30.16,SW,225,0.0,14.0,47,0.00,,---,0.00,VWS V13.01,2013-03-15 01:00:00,
2013-03-14 20:05:00,63.6,43.6,30.16,SW,221,0.0,14.0,48,0.00,,---,0.00,VWS V13.01,2013-03-15 01:05:00,
2013-03-14 20:10:00,63.4,43.4,30.15,South,190,0.0,4.0,48,0.00,,---,0.00,VWS V13.01,2013-03-15 01:10:00,
2013-03-14 20:16:00,63.3,43.8,30.15,SSW,213,0.0,7.0,49,0.00,,---,0.00,VWS V13.01,2013-03-15 01:16:00,
2013-03-14 20:21:00,63.3,43.3,30.15,SSW,211,4.0,7.0,48,0.00,,---,0.00,VWS V13.01,2013-03-15 01:21:00,
2013-03-14 20:26:00,63.2,43.2,30.15,SW,232,0.0,10.0,48,0.00,,---,0.00,VWS V13.01,2013-03-15 01:26:00,
2013-03-14 20:31:00,63.1,43.7,30.15,SW,224,0.0,10.0,49,0.00,,---,0.00,VWS V13.01,2013-03-15 01:31:00,
2013-03-14 20:36:00,62.7,43.3,30.15,SW,227,3.0,6.0,49,0.00,,---,0.00,VWS V13.01,2013-03-15 01:36:00,
2013-03-14 20:41:00,62.6,43.7,30.15,SW,222,0.0,7.0,50,0.00,,---,0.00,VWS V13.01,2013-03-15 01:41:00,
2013-03-14 20:46:00,62.3,42.9,30.16,SW,223,0.0,7.0,49,0.00,,---,0.00,VWS V13.01,2013-03-15 01:46:00,
2013-03-14 20:51:00,62.2,43.3,30.15,SW,215,0.0,7.0,50,0.00,,---,0.00,VWS V13.01,2013-03-15 01:51:00,
2013-03-14 20:57:00,61.7,43.4,30.15,SW,215,0.0,7.0,51,0.00,,---,0.00,VWS V13.01,2013-03-15 01:57:00,
2013-03-14 21:02:00,61.4,43.1,30.15,SW,215,0.0,7.0,51,0.00,,---,0.00,VWS V13.01,2013-03-15 02:02:00,
2013-03-14 21:07:00,61.1,43.4,30.15,SW,217,2.0,5.0,52,0.00,,---,0.00,VWS V13.01,2013-03-15 02:07:00,
2013-03-14 21:12:00,60.8,43.1,30.14,SW,215,1.0,5.0,52,0.00,,---,0.00,VWS V13.01,2013-03-15 02:12:00,
2013-03-14 21:17:00,60.4,43.2,30.14,SW,215,0.0,5.0,53,0.00,,---,0.00,VWS V13.01,2013-03-15 02:17:00,
2013-03-14 21:22:00,60.0,43.3,30.14,SW,215,0.0,5.0,54,0.00,,---,0.00,VWS V13.01,2013-03-15 02:22:00,
2013-03-14 21:27:00,59.8,43.1,30.14,SW,218,0.0,6.0,54,0.00,,---,0.00,VWS V13.01,2013-03-15 02:27:00,
2013-03-14 21:32:00,60.1,42.9,30.14,SW,222,0.0,6.0,53,0.00,,---,0.00,VWS V13.01,2013-03-15 02:32:00,
2013-03-14 21:37:00,60.1,42.9,30.13,SW,217,3.0,3.0,53,0.00,,---,0.00,VWS V13.01,2013-03-15 02:37:00,
2013-03-14 21:42:00,60.2,43.0,30.14,SSW,192,0.0,10.0,53,0.00,,---,0.00,VWS V13.01,2013-03-15 02:42:00,
2013-03-14 21:47:00,60.2,43.0,30.14,SW,215,0.0,10.0,53,0.00,,---,0.00,VWS V13.01,2013-03-15 02:47:00,
2013-03-14 21:52:00,60.3,43.6,30.14,WNW,284,0.0,10.0,54,0.00,,---,0.00,VWS V13.01,2013-03-15 02:52:00,
2013-03-14 21:57:00,60.5,43.3,30.15,West,276,0.0,10.0,53,0.00,,---,0.00,VWS V13.01,2013-03-15 02:57:00,
2013-03-14 22:02:00,60.7,44.0,30.15,WSW,252,0.0,10.0,54,0.00,,---,0.00,VWS V13.01,2013-03-15 03:02:00,
2013-03-14 22:08:00,60.7,43.5,30.15,SW,228,0.0,5.0,53,0.00,,---,0.00,VWS V13.01,2013-03-15 03:08:00,
2013-03-14 22:13:00,60.7,44.0,30.14,SW,234,0.0,5.0,54,0.00,,---,0.00,VWS V13.01,2013-03-15 03:13:00,
2013-03-14 22:18:00,60.6,43.4,30.14,SW,217,0.0,10.0,53,0.00,,---,0.00,VWS V13.01,2013-03-15 03:18:00,
2013-03-14 22:23:00,60.7,43.5,30.14,SW,222,0.0,10.0,53,0.00,,---,0.00,VWS V13.01,2013-03-15 03:23:00,
2013-03-14 22:28:00,61.3,43.5,30.15,West,279,7.0,13.0,52,0.00,,---,0.00,VWS V13.01,2013-03-15 03:28:00,
2013-03-14 22:33:00,62.0,43.7,30.15,SW,216,4.0,13.0,51,0.00,,---,0.00,VWS V13.01,2013-03-15 03:33:00,
2013-03-14 22:38:00,62.5,44.2,30.15,SW,221,0.0,6.0,51,0.00,,---,0.00,VWS V13.01,2013-03-15 03:38:00,
2013-03-14 22:43:00,62.7,43.8,30.15,SW,233,2.0,7.0,50,0.00,,---,0.00,VWS V13.01,2013-03-15 03:43:00,
2013-03-14 22:48:00,62.7,44.3,30.15,WNW,302,0.0,7.0,51,0.00,,---,0.00,VWS V13.01,2013-03-15 03:48:00,
2013-03-14 22:53:00,62.5,44.2,30.15,WNW,303,0.0,7.0,51,0.00,,---,0.00,VWS V13.01,2013-03-15 03:53:00,
2013-03-14 22:58:00,62.2,43.9,30.16,WNW,303,0.0,7.0,51,0.00,,---,0.00,VWS V13.01,2013-03-15 03:58:00,
2013-03-14 23:00:00,62.1,44.3,30.16,WNW,303,0.0,7.0,52,0.00,,---,0.00,VWS V13.01,2013-03-15 04:00:00,
2013-03-14 23:06:00,61.6,43.8,30.16,WNW,302,0.0,7.0,52,0.00,,---,0.00,VWS V13.01,2013-03-15 04:06:00,
2013-03-14 23:11:00,61.3,44.0,30.15,WNW,292,0.0,3.0,53,0.00,,---,0.00,VWS V13.01,2013-03-15 04:11:00,
2013-03-14 23:16:00,61.0,44.2,30.15,West,267,0.0,4.0,54,0.00,,---,0.00,VWS V13.01,2013-03-15 04:16:00,
2013-03-14 23:21:00,60.8,44.1,30.15,West,265,0.0,4.0,54,0.00,,---,0.00,VWS V13.01,2013-03-15 04:21:00,
2013-03-14 23:26:00,60.6,43.9,30.15,West,265,0.0,4.0,54,0.00,,---,0.00,VWS V13.01,2013-03-15 04:26:00,
2013-03-14 23:31:00,60.4,43.7,30.15,West,266,0.0,4.0,54,0.00,,---,0.00,VWS V13.01,2013-03-15 04:31:00,
2013-03-14 23:36:00,60.2,43.5,30.15,West,266,0.0,0.0,54,0.00,,---,0.00,VWS V13.01,2013-03-15 04:36:00,
2013-03-14 23:42:00,59.9,43.7,30.14,West,266,0.0,0.0,55,0.00,,---,0.00,VWS V13.01,2013-03-15 04:42:00,
2013-03-14 23:47:00,59.7,43.5,30.14,West,265,0.0,0.0,55,0.00,,---,0.00,VWS V13.01,2013-03-15 04:47:00,
2013-03-14 23:52:00,59.5,43.3,30.14,West,265,0.0,0.0,55,0.00,,---,0.00,VWS V13.01,2013-03-15 04:52:00,
2013-03-14 23:57:00,59.2,43.5,30.14,West,266,0.0,0.0,56,0.00,,---,0.00,VWS V13.01,2013-03-15 04:57:00,